Time;durP1;ratioP1;P1;durP2;ratioP2;P2;SDS_P1;SDS_P2;PMS_P1;PMS_P2;Temp;Humidity;BMP_temperature;BMP_pressure;BME280_temperature;BME280_humidity;BME280_pressure;Samples;Min_cycle;Max_cycle;Signal;HPM_P1;HPM_P2
2022/05/18 00:02:39;;;;;;;2.28;1.58;;;;;;;12.73;99.33;100182.53;6317324;28;20045;-73
2022/05/18 00:05:41;;;;;;;3.13;1.80;;;;;;;12.69;97.28;100185.31;6300178;28;20049;-78
2022/05/18 00:08:42;;;;;;;5.30;1.80;;;;;;;12.56;96.36;100192.34;6301427;28;20041;-81
2022/05/18 00:11:43;;;;;;;5.35;1.80;;;;;;;12.58;94.83;100197.44;6299461;28;20095;-75
2022/05/18 00:14:44;;;;;;;6.72;2.10;;;;;;;12.65;92.11;100191.72;6301610;28;20048;-79
2022/05/18 00:17:45;;;;;;;3.97;1.83;;;;;;;12.61;91.24;100202.50;6316572;28;20487;-73
2022/05/18 00:20:46;;;;;;;4.20;1.75;;;;;;;12.59;91.02;100197.34;6316660;28;20506;-79
2022/05/18 00:23:47;;;;;;;5.50;2.00;;;;;;;12.55;89.97;100189.81;6316488;28;20040;-73
2022/05/18 00:26:48;;;;;;;2.50;1.45;;;;;;;12.58;89.49;100197.44;6316770;28;20037;-79
2022/05/18 00:29:49;;;;;;;4.57;1.80;;;;;;;12.52;90.56;100197.88;6316139;28;20049;-73
2022/05/18 00:32:50;;;;;;;3.28;1.70;;;;;;;12.44;88.25;100220.16;6300570;28;20067;-78
2022/05/18 00:35:51;;;;;;;2.83;1.50;;;;;;;12.25;88.41;100225.78;6300323;28;20139;-79
2022/05/18 00:38:52;;;;;;;3.63;1.70;;;;;;;12.22;89.32;100220.72;6299810;28;20287;-79
2022/05/18 00:41:52;;;;;;;3.30;1.70;;;;;;;12.09;88.29;100214.63;6299447;28;20041;-74
2022/05/18 00:44:54;;;;;;;3.55;1.65;;;;;;;12.08;87.71;100218.16;6299408;28;20048;-73
2022/05/18 00:47:55;;;;;;;2.67;1.60;;;;;;;12.12;87.45;100216.19;6299223;28;20082;-73
2022/05/18 00:51:00;;;;;;;7.20;1.77;;;;;;;11.95;87.47;100218.13;6299372;28;20411;-79
2022/05/18 00:54:30;;;;;;;2.35;1.60;;;;;;;11.85;88.81;100219.63;6300098;28;20525;-79
2022/05/18 00:57:46;;;;;;;3.20;1.58;;;;;;;11.87;86.88;100238.66;6298681;28;20502;-73
2022/05/18 01:00:50;;;;;;;2.42;1.48;;;;;;;11.89;85.98;100252.50;6315751;28;20056;-73
2022/05/18 01:03:53;;;;;;;8.52;1.75;;;;;;;11.88;85.99;100259.53;6299996;28;20049;-74
2022/05/18 01:07:02;;;;;;;4.63;1.50;;;;;;;11.78;86.16;100263.63;6299837;28;20418;-76
2022/05/18 01:10:04;;;;;;;3.38;1.60;;;;;;;11.69;88.20;100258.94;6299894;28;20052;-74
2022/05/18 01:13:06;;;;;;;3.15;1.60;;;;;;;11.65;88.07;100265.28;6298510;28;20052;-80
2022/05/18 01:16:06;;;;;;;5.63;1.70;;;;;;;11.42;89.39;100266.72;6298856;28;20044;-74
2022/05/18 01:19:32;;;;;;;4.05;1.42;;;;;;;11.46;89.83;100270.81;6299013;28;20052;-79
2022/05/18 01:22:51;;;;;;;3.97;1.65;;;;;;;11.39;90.49;100287.81;6297919;28;20082;-74
2022/05/18 01:25:57;;;;;;;2.88;1.60;;;;;;;11.37;90.08;100276.63;6298323;28;20059;-74
2022/05/18 01:28:59;;;;;;;2.67;1.60;;;;;;;11.23;90.29;100277.44;6299254;28;20386;-73
2022/05/18 01:32:02;;;;;;;;;;;;;;;11.32;90.32;100291.72;6299538;28;20101;-74
2022/05/18 01:35:03;;;;;;;4.65;1.52;;;;;;;11.21;90.10;100301.03;6298483;28;19920;-74
2022/05/18 01:38:06;;;;;;;4.00;1.85;;;;;;;11.13;89.64;100302.44;6298419;28;20048;-74
2022/05/18 01:41:15;;;;;;;3.60;1.50;;;;;;;11.12;88.92;100296.38;6280650;28;20384;-74
2022/05/18 01:44:17;;;;;;;5.00;1.60;;;;;;;11.13;87.64;100312.88;6299312;28;20453;-79
2022/05/18 01:47:17;;;;;;;3.28;1.60;;;;;;;11.05;86.70;100314.16;6299136;28;20182;-79
2022/05/18 01:50:27;;;;;;;3.35;1.40;;;;;;;11.00;86.85;100316.22;6297973;28;20052;-79
2022/05/18 01:53:29;;;;;;;9.75;1.55;;;;;;;10.99;85.02;100331.97;6298950;28;20102;-74
2022/05/18 01:56:30;;;;;;;5.22;1.63;;;;;;;11.12;84.11;100325.09;6297123;28;20123;-79
2022/05/18 01:59:31;;;;;;;3.05;1.20;;;;;;;11.12;83.65;100322.50;6313957;28;20056;-79
2022/05/18 02:02:32;;;;;;;4.43;1.48;;;;;;;11.05;84.44;100313.31;6298714;28;20973;-74
2022/05/18 02:05:33;;;;;;;3.80;1.50;;;;;;;10.99;83.74;100324.97;6298944;28;20044;-79
2022/05/18 02:08:35;;;;;;;3.35;1.67;;;;;;;10.92;84.99;100335.88;6296747;28;20051;-79
2022/05/18 02:11:36;;;;;;;4.93;1.38;;;;;;;10.87;82.59;100326.53;6298554;28;20049;-79
2022/05/18 02:14:37;;;;;;;2.88;1.63;;;;;;;10.84;81.23;100336.31;6297510;28;20044;-80
2022/05/18 02:17:38;;;;;;;5.30;2.30;;;;;;;10.92;79.87;100333.25;6297875;28;20123;-78
2022/05/18 02:20:42;;;;;;;2.55;1.77;;;;;;;10.93;78.51;100351.44;6314007;28;20128;-79
2022/05/18 02:23:43;;;;;;;4.85;1.38;;;;;;;10.97;79.05;100359.94;6297257;28;20045;-78
2022/05/18 02:26:45;;;;;;;4.60;1.45;;;;;;;10.80;77.98;100363.50;6297116;28;20059;-78
2022/05/18 02:29:46;;;;;;;4.05;1.38;;;;;;;10.82;78.24;100365.09;6298058;28;20047;-74
2022/05/18 02:32:47;;;;;;;2.45;1.35;;;;;;;10.76;75.96;100375.06;6296842;28;20048;-77
2022/05/18 02:35:48;;;;;;;3.13;1.30;;;;;;;10.83;75.58;100368.53;6297985;28;20395;-78
2022/05/18 02:38:50;;;;;;;2.92;1.17;;;;;;;10.74;75.33;100375.13;6297960;28;20045;-78
2022/05/18 02:41:51;;;;;;;3.55;1.60;;;;;;;10.71;74.99;100384.91;6297700;28;20045;-78
2022/05/18 02:44:53;;;;;;;4.45;1.38;;;;;;;10.66;74.67;100387.78;6296731;28;20048;-74
2022/05/18 02:47:54;;;;;;;3.47;1.07;;;;;;;10.65;75.34;100392.16;6296600;28;20041;-78
2022/05/18 02:50:55;;;;;;;2.72;1.27;;;;;;;10.57;74.64;100393.53;6313059;28;20105;-78
2022/05/18 02:53:57;;;;;;;2.35;1.00;;;;;;;10.54;73.56;100404.13;6296666;28;20040;-78
2022/05/18 02:56:58;;;;;;;1.80;1.02;;;;;;;10.48;73.91;100402.72;6297710;28;20521;-78
2022/05/18 02:59:59;;;;;;;3.25;1.25;;;;;;;10.40;72.61;100413.56;6296315;28;20045;-74
2022/05/18 03:03:00;;;;;;;4.68;1.30;;;;;;;10.33;72.24;100427.84;6296118;28;20095;-77
2022/05/18 03:06:03;;;;;;;3.20;1.20;;;;;;;10.34;72.82;100431.31;6263274;28;20064;-77
2022/05/18 03:09:04;;;;;;;2.45;1.05;;;;;;;10.32;72.67;100443.59;6296837;28;20123;-78
2022/05/18 03:12:06;;;;;;;1.08;0.95;;;;;;;10.32;74.14;100441.81;6296449;28;20054;-78
2022/05/18 03:15:07;;;;;;;3.70;1.30;;;;;;;10.27;70.25;100454.22;6296546;28;20123;-77
2022/05/18 03:18:09;;;;;;;2.33;1.20;;;;;;;10.29;70.91;100452.38;6296417;28;20350;-77
2022/05/18 03:24:29;;;;;;;4.85;1.10;;;;;;;10.07;71.56;100479.59;6301471;28;20040;-73
2022/05/18 03:27:30;;;;;;;3.83;1.40;;;;;;;9.97;71.68;100485.38;6302053;28;20105;-78
2022/05/18 03:30:31;;;;;;;2.88;1.10;;;;;;;9.86;71.98;100491.09;6301077;28;20041;-74
2022/05/18 03:33:33;;;;;;;3.08;1.23;;;;;;;9.94;73.26;100511.56;6300874;28;20127;-73
2022/05/18 03:36:34;;;;;;;4.80;1.67;;;;;;;9.90;71.51;100505.66;6300740;28;20056;-73
2022/05/18 03:39:35;;;;;;;2.58;1.05;;;;;;;10.02;71.41;100523.28;6301786;28;20036;-73
2022/05/18 03:42:36;;;;;;;2.60;0.90;;;;;;;10.00;70.63;100529.50;6300341;28;20048;-74
2022/05/18 03:45:38;;;;;;;2.78;0.93;;;;;;;9.99;68.87;100531.28;6308978;28;20050;-77
2022/05/18 03:48:39;;;;;;;1.87;1.03;;;;;;;9.90;69.94;100544.78;6308982;28;20071;-77
2022/05/18 03:51:41;;;;;;;3.60;1.23;;;;;;;9.87;70.96;100552.75;6351967;28;20296;-77
2022/05/18 03:54:42;;;;;;;3.70;1.52;;;;;;;9.95;69.31;100557.59;6351012;28;20119;-77
2022/05/18 03:57:43;;;;;;;3.05;0.90;;;;;;;9.91;69.32;100563.88;6352203;28;20046;-80
2022/05/18 04:00:46;;;;;;;3.58;1.10;;;;;;;9.92;68.89;100569.00;6294626;28;20063;-77
2022/05/18 04:03:47;;;;;;;2.45;1.00;;;;;;;9.85;70.33;100572.84;6325393;28;20062;-74
2022/05/18 04:06:48;;;;;;;4.00;0.88;;;;;;;9.87;70.51;100576.22;6311893;28;20044;-74
2022/05/18 04:09:49;;;;;;;3.60;1.00;;;;;;;9.96;70.24;100582.72;6303128;28;20143;-74
2022/05/18 04:12:50;;;;;;;1.23;1.10;;;;;;;9.88;69.61;100588.31;6326159;28;20544;-74
2022/05/18 04:15:52;;;;;;;3.35;1.00;;;;;;;9.98;67.48;100593.91;6324774;28;20048;-74
2022/05/18 04:18:53;;;;;;;2.50;1.23;;;;;;;10.02;67.02;100596.28;6325125;28;20044;-77
2022/05/18 04:21:54;;;;;;;3.88;1.33;;;;;;;10.07;65.78;100609.13;6305335;28;20076;-73
2022/05/18 04:24:55;;;;;;;3.75;1.08;;;;;;;10.07;66.19;100616.94;6283166;28;20730;-74
2022/05/18 04:27:56;;;;;;;3.15;1.10;;;;;;;10.19;66.39;100625.88;6299556;28;20045;-74
2022/05/18 04:30:57;;;;;;;2.90;1.07;;;;;;;10.26;64.28;100633.34;6298409;28;20052;-74
2022/05/18 04:33:57;;;;;;;2.78;0.90;;;;;;;10.21;63.81;100632.75;6300640;28;20049;-75
2022/05/18 04:36:58;;;;;;;2.90;1.08;;;;;;;10.36;61.15;100648.56;6299417;28;20045;-74
2022/05/18 04:40:00;;;;;;;1.90;1.00;;;;;;;10.39;62.56;100645.78;6300776;28;20047;-74
2022/05/18 04:43:01;;;;;;;3.22;1.02;;;;;;;10.37;62.74;100653.69;6282376;28;20110;-74
2022/05/18 04:46:02;;;;;;;3.50;1.10;;;;;;;10.48;61.96;100658.38;6299444;28;20040;-74
2022/05/18 04:49:03;;;;;;;5.07;1.20;;;;;;;10.48;61.47;100659.22;6285893;28;20059;-73
2022/05/18 04:52:07;;;;;;;4.35;1.15;;;;;;;10.56;61.81;100664.03;6307353;28;20378;-74
2022/05/18 04:55:10;;;;;;;3.22;0.90;;;;;;;10.53;59.98;100653.75;6291038;28;20044;-73
2022/05/18 04:58:11;;;;;;;;;;;;;;;10.74;62.63;100675.28;6291336;28;20036;-73
2022/05/18 05:01:12;;;;;;;5.47;0.90;;;;;;;10.73;59.51;100689.28;6333078;28;20267;-74
2022/05/18 05:04:13;;;;;;;1.83;0.85;;;;;;;10.78;59.87;100694.25;6303284;28;20051;-73
2022/05/18 05:07:14;;;;;;;5.57;0.90;;;;;;;10.95;61.17;100704.66;6307616;28;20055;-73
2022/05/18 05:10:18;;;;;;;2.33;0.90;;;;;;;10.94;60.60;100702.97;6325667;28;20040;-73
2022/05/18 05:13:19;;;;;;;5.68;1.00;;;;;;;10.98;60.02;100706.28;6324668;28;20040;-74
2022/05/18 05:16:21;;;;;;;9.50;1.40;;;;;;;11.02;58.94;100707.81;6311289;28;20050;-74
2022/05/18 05:19:22;;;;;;;3.85;1.35;;;;;;;11.03;58.27;100717.31;6332397;28;20529;-79
2022/05/18 05:22:23;;;;;;;4.15;1.40;;;;;;;11.08;58.93;100721.38;6332445;28;20093;-79
2022/05/18 05:25:24;;;;;;;2.40;1.23;;;;;;;11.13;56.98;100722.91;6350402;28;20089;-78
2022/05/18 05:28:25;;;;;;;5.65;0.95;;;;;;;11.15;57.68;100719.28;6350443;28;20063;-74
2022/05/18 05:31:27;;;;;;;3.72;1.00;;;;;;;11.26;58.95;100726.53;6289074;28;20142;-74
2022/05/18 05:34:28;;;;;;;1.92;1.10;;;;;;;11.33;55.03;100733.16;6314126;28;20119;-73
2022/05/18 05:37:29;;;;;;;0.95;0.85;;;;;;;11.42;53.05;100750.09;6308751;28;20048;-73
2022/05/18 05:40:29;;;;;;;4.40;1.10;;;;;;;11.44;54.70;100751.69;6311806;28;20054;-74
2022/05/18 05:43:31;;;;;;;6.38;1.27;;;;;;;11.49;53.32;100754.91;6320440;28;20528;-74
2022/05/18 05:46:32;;;;;;;3.97;1.17;;;;;;;11.69;55.62;100758.22;6287594;28;20055;-74
2022/05/18 05:49:33;;;;;;;5.55;0.80;;;;;;;11.64;54.08;100768.94;6321676;28;20056;-74
2022/05/18 05:52:34;;;;;;;5.30;1.23;;;;;;;11.56;53.10;100772.88;6303795;28;20090;-75
2022/05/18 05:55:35;;;;;;;8.15;1.13;;;;;;;11.83;53.86;100778.38;6303917;28;20042;-75
2022/05/18 05:58:37;;;;;;;5.10;1.10;;;;;;;11.85;51.50;100784.38;6287995;28;20056;-75
2022/05/18 06:01:38;;;;;;;6.85;1.50;;;;;;;11.99;50.65;100781.88;6304646;28;20044;-75
2022/05/18 06:04:39;;;;;;;3.85;1.17;;;;;;;12.02;45.56;100781.69;6304567;28;20188;-76
2022/05/18 06:07:40;;;;;;;5.53;1.05;;;;;;;12.10;46.62;100796.97;6287997;28;20044;-76
2022/05/18 06:10:41;;;;;;;5.72;1.08;;;;;;;12.26;46.84;100786.50;6304178;28;20051;-73
2022/05/18 06:13:42;;;;;;;10.02;1.05;;;;;;;12.30;46.95;100790.63;6304338;28;20405;-75
2022/05/18 06:16:46;;;;;;;1.85;1.25;;;;;;;12.32;46.49;100791.38;6322348;28;20098;-76
2022/05/18 06:19:47;;;;;;;3.97;1.10;;;;;;;12.42;45.18;100782.09;6304053;28;20426;-76
2022/05/18 06:22:48;;;;;;;2.17;1.00;;;;;;;12.23;45.02;100790.13;6287470;28;20044;-75
2022/05/18 06:25:49;;;;;;;3.53;0.88;;;;;;;12.36;43.89;100797.31;6270966;28;20113;-75
2022/05/18 06:28:50;;;;;;;6.70;1.10;;;;;;;12.40;44.34;100811.91;6321997;28;20040;-76
2022/05/18 06:31:51;;;;;;;6.50;1.30;;;;;;;12.47;43.93;100821.06;6270601;28;20131;-75
2022/05/18 06:34:52;;;;;;;5.55;1.00;;;;;;;12.47;41.82;100826.31;6303826;28;20490;-75
2022/05/18 06:37:53;;;;;;;2.45;1.10;;;;;;;12.48;41.43;100828.84;6287392;28;20068;-72
2022/05/18 06:44:14;;;;;;;2.88;1.17;;;;;;;12.69;42.11;100836.41;6292451;28;20039;-75
2022/05/18 06:47:15;;;;;;;7.72;1.42;;;;;;;12.74;42.81;100838.75;6293454;28;20466;-75
2022/05/18 06:50:16;;;;;;;1.33;1.00;;;;;;;12.88;43.53;100844.03;6336358;28;20062;-76
2022/05/18 06:53:17;;;;;;;6.03;1.20;;;;;;;13.03;41.40;100845.78;6321239;28;20044;-75
2022/05/18 06:56:23;;;;;;;3.35;1.20;;;;;;;13.01;41.01;100854.63;6312568;28;20178;-74
2022/05/18 06:59:24;;;;;;;4.07;1.08;;;;;;;12.87;41.38;100850.22;6303610;28;20043;-76
2022/05/18 07:02:25;;;;;;;5.15;1.08;;;;;;;13.13;40.89;100856.53;6287251;28;20379;-75
2022/05/18 07:05:27;;;;;;;10.15;1.08;;;;;;;13.23;39.98;100862.94;6303596;28;20039;-76
2022/05/18 07:08:28;;;;;;;2.85;1.13;;;;;;;13.45;41.53;100870.41;6303474;28;20406;-76
2022/05/18 07:11:29;;;;;;;5.15;1.05;;;;;;;13.74;41.67;100873.03;6321477;28;20047;-76
2022/05/18 07:14:30;;;;;;;5.50;1.55;;;;;;;13.77;41.49;100870.22;6303323;28;20036;-73
2022/05/18 07:17:32;;;;;;;3.78;0.75;;;;;;;13.84;37.29;100881.19;6337335;28;20442;-79
2022/05/18 07:20:33;;;;;;;3.88;1.23;;;;;;;14.00;40.62;100887.19;6329191;28;20379;-79
2022/05/18 07:23:34;;;;;;;4.90;1.02;;;;;;;14.19;38.11;100893.91;6329131;28;20052;-78
2022/05/18 07:26:35;;;;;;;2.67;1.05;;;;;;;14.05;36.34;100887.72;6312782;28;20043;-78
2022/05/18 07:29:37;;;;;;;4.90;1.15;;;;;;;14.15;38.01;100890.63;6329635;28;20060;-79
2022/05/18 07:32:38;;;;;;;8.43;1.38;;;;;;;14.39;37.94;100880.34;6312986;28;20039;-76
2022/05/18 07:35:39;;;;;;;2.08;1.15;;;;;;;14.67;37.40;100900.44;6328309;28;20058;-74
2022/05/18 07:38:41;;;;;;;2.50;1.30;;;;;;;14.38;36.13;100904.91;6306460;28;20056;-74
2022/05/18 07:41:43;;;;;;;2.17;1.10;;;;;;;14.37;35.38;100905.00;6346019;28;20851;-73
2022/05/18 07:44:44;;;;;;;;;;;;;;;14.36;35.37;100898.91;6329393;28;20047;-80
2022/05/18 07:47:44;;;;;;;3.63;0.80;;;;;;;14.19;35.85;100907.84;6310433;28;20057;-79
2022/05/18 07:50:45;;;;;;;3.42;0.80;;;;;;;14.26;35.88;100906.53;6312074;28;20062;-80
2022/05/18 07:53:46;;;;;;;4.00;0.80;;;;;;;14.56;34.08;100907.31;6329480;28;20043;-78
2022/05/18 07:56:47;;;;;;;5.20;1.00;;;;;;;14.75;35.31;100920.97;6347130;28;20082;-79
2022/05/18 07:59:53;;;;;;;5.00;0.93;;;;;;;14.76;33.26;100921.81;6312377;28;20054;-80
2022/05/18 08:02:54;;;;;;;2.13;0.85;;;;;;;15.17;33.60;100926.97;6312056;28;20044;-74
2022/05/18 08:05:55;;;;;;;6.65;1.08;;;;;;;14.78;31.89;100928.63;6348820;28;20474;-73
2022/05/18 08:08:56;;;;;;;2.42;0.77;;;;;;;14.74;34.68;100924.53;6315335;28;20146;-73
2022/05/18 08:15:17;;;;;;;1.30;0.47;;;;;;;15.28;31.48;100955.19;6309690;28;20487;-74
2022/05/18 08:18:19;;;;;;;8.20;0.93;;;;;;;15.42;31.17;100949.00;6307199;28;20132;-73
2022/05/18 08:21:20;;;;;;;5.80;0.88;;;;;;;15.52;32.79;100945.66;6275187;28;20108;-79
2022/05/18 08:24:21;;;;;;;2.30;0.80;;;;;;;15.91;31.13;100954.41;6274675;28;20135;-73
2022/05/18 08:27:22;;;;;;;3.83;0.73;;;;;;;15.60;31.72;100958.28;6307122;28;20044;-74
2022/05/18 08:30:24;;;;;;;4.60;0.73;;;;;;;15.69;30.94;100955.03;6273938;28;20036;-74
2022/05/18 08:33:26;;;;;;;9.10;0.80;;;;;;;15.75;29.78;100958.22;6324950;28;20089;-73
2022/05/18 08:36:27;;;;;;;4.22;0.85;;;;;;;15.45;30.67;100962.78;6290293;28;20083;-75
2022/05/18 08:39:28;;;;;;;0.68;0.55;;;;;;;15.64;30.09;100967.66;6290187;28;20047;-78
2022/05/18 08:42:29;;;;;;;3.20;0.70;;;;;;;16.04;31.89;100977.25;6291353;28;20123;-79
2022/05/18 08:45:41;;;;;;;6.97;0.85;;;;;;;16.27;31.58;100973.88;6300641;28;20048;-79
2022/05/18 08:48:44;;;;;;;;;;;;;;;16.08;31.16;100974.31;6326466;28;20539;-80
2022/05/18 08:52:03;;;;;;;;;;;;;;;16.49;30.27;100960.03;6308422;28;19932;-79
2022/05/18 08:55:31;;;;;;;11.02;1.50;;;;;;;16.56;30.44;100975.41;6325709;28;19948;-80
2022/05/18 08:58:43;;;;;;;2.47;1.00;;;;;;;16.61;30.32;100984.63;6307733;28;20082;-80
2022/05/18 09:01:46;;;;;;;6.72;0.60;;;;;;;16.69;31.13;100973.56;6326048;28;20540;-79
2022/05/18 09:04:56;;;;;;;4.78;0.80;;;;;;;15.95;32.32;100980.53;6325483;28;20046;-80
2022/05/18 09:08:05;;;;;;;2.85;0.80;;;;;;;15.98;33.88;100981.19;6307700;28;20052;-80
2022/05/18 09:11:21;;;;;;;9.35;0.90;;;;;;;16.41;32.72;100985.22;6306964;28;20463;-79
2022/05/18 09:14:27;;;;;;;4.03;0.70;;;;;;;16.68;31.70;100990.34;6307442;28;20085;-80
2022/05/18 09:17:36;;;;;;;3.00;0.70;;;;;;;16.94;29.88;100985.00;6335271;28;20028;-81
2022/05/18 09:20:42;;;;;;;4.35;0.80;;;;;;;16.91;31.03;100983.44;6340261;28;20048;-80
2022/05/18 09:24:04;;;;;;;3.95;0.63;;;;;;;16.57;29.99;100995.50;6332106;28;20047;-79
2022/05/18 09:27:28;;;;;;;;;;;;;;;16.77;32.02;100983.56;6320575;28;20062;-80
2022/05/18 09:30:37;;;;;;;1.05;0.50;;;;;;;16.81;30.24;100985.03;6322504;28;19924;-80
2022/05/18 09:33:46;;;;;;;10.45;0.90;;;;;;;16.86;29.62;100996.94;6314176;28;20077;-80
2022/05/18 09:37:28;;;;;;;0.43;0.40;;;;;;;17.64;29.16;101000.81;6331770;28;20051;-78
2022/05/18 09:40:38;;;;;;;4.28;0.60;;;;;;;17.57;30.14;100994.34;6322078;28;20071;-81
2022/05/18 09:44:08;;;;;;;5.38;0.80;;;;;;;17.64;30.51;101003.47;6349971;28;20459;-79
2022/05/18 09:47:16;;;;;;;2.35;0.57;;;;;;;17.18;29.93;101004.28;6332086;28;20054;-79
2022/05/18 09:50:18;;;;;;;5.90;0.73;;;;;;;17.25;29.27;101008.13;6314145;28;20422;-74
2022/05/18 09:53:20;;;;;;;3.30;0.60;;;;;;;17.66;27.63;101004.19;6314310;28;20497;-80
2022/05/18 09:56:30;;;;;;;3.22;0.57;;;;;;;17.43;29.25;101002.47;6348501;28;20043;-74
2022/05/18 09:59:37;;;;;;;2.22;0.50;;;;;;;17.44;29.02;101010.28;6348243;28;20040;-74
2022/05/18 10:09:44;;;;;;;3.33;0.63;;;;;;;18.30;27.39;101013.44;6348183;28;20039;-79
2022/05/18 10:12:54;;;;;;;2.20;0.50;;;;;;;18.34;26.25;101009.59;6348922;28;20039;-73
2022/05/18 10:16:19;;;;;;;3.15;0.50;;;;;;;18.72;25.83;101003.91;6329932;28;20623;-73
2022/05/18 10:19:28;;;;;;;7.30;0.93;;;;;;;18.58;26.88;101011.25;6329412;28;20050;-74
2022/05/18 10:22:34;;;;;;;2.90;0.50;;;;;;;18.45;26.75;101012.25;6329410;28;20043;-73
2022/05/18 10:25:41;;;;;;;2.95;0.52;;;;;;;18.72;28.03;101001.25;6296541;28;20051;-74
2022/05/18 10:28:43;;;;;;;4.38;0.50;;;;;;;18.80;27.05;100998.03;6346667;28;20466;-73
2022/05/18 10:32:01;;;;;;;3.63;0.65;;;;;;;18.83;28.00;101007.53;6311942;28;20122;-73
2022/05/18 10:35:02;;;;;;;5.05;0.70;;;;;;;18.75;28.71;101010.75;6303948;28;20068;-74
2022/05/18 10:38:17;;;;;;;0.95;0.50;;;;;;;19.13;27.44;100991.81;6287523;28;20071;-73
2022/05/18 10:41:26;;;;;;;8.15;0.70;;;;;;;17.83;27.91;100995.03;6304336;28;20413;-80
2022/05/18 10:44:35;;;;;;;4.72;0.60;;;;;;;18.38;28.70;100999.63;6273157;28;20051;-73
2022/05/18 10:47:38;;;;;;;3.28;0.73;;;;;;;18.38;27.73;100999.63;6303755;28;20042;-74
2022/05/18 10:50:40;;;;;;;2.10;0.55;;;;;;;19.06;27.92;100995.91;6287565;28;20055;-74
2022/05/18 10:53:44;;;;;;;4.93;0.60;;;;;;;18.60;28.07;100981.09;6287151;28;20050;-74
2022/05/18 10:56:46;;;;;;;4.72;0.65;;;;;;;18.57;27.88;100996.34;6287503;28;20074;-74
2022/05/18 11:00:08;;;;;;;5.57;0.82;;;;;;;19.11;26.90;100999.03;6287452;28;20048;-81
2022/05/18 11:03:19;;;;;;;;;;;;;;;19.28;26.57;101005.56;6323538;28;20048;-82
2022/05/18 11:06:28;;;;;;;1.70;0.60;;;;;;;19.44;29.33;100993.72;6327780;28;20393;-74
2022/05/18 11:09:32;;;;;;;7.03;0.50;;;;;;;19.14;26.93;101000.56;6320943;28;20138;-81
2022/05/18 11:12:57;;;;;;;2.58;0.60;;;;;;;19.10;28.08;101010.56;6326512;28;20085;-81
2022/05/18 11:16:14;;;;;;;1.23;0.63;;;;;;;18.85;26.08;100997.66;6311628;28;20050;-80
2022/05/18 11:19:48;;;;;;;9.25;0.82;;;;;;;18.46;28.23;100999.84;6322758;28;20065;-74
2022/05/18 11:22:52;;;;;;;4.82;0.70;;;;;;;18.64;28.22;100987.00;6307225;28;20405;-74
2022/05/18 11:26:17;;;;;;;2.22;0.80;;;;;;;19.05;27.91;100990.75;6346556;28;20062;-74
2022/05/18 11:29:51;;;;;;;2.47;0.60;;;;;;;19.20;25.97;100991.28;6312390;28;20043;-80
2022/05/18 11:33:22;;;;;;;5.05;0.52;;;;;;;18.68;26.71;100991.06;6285758;28;20058;-82
2022/05/18 11:36:38;;;;;;;1.10;0.57;;;;;;;19.62;26.78;100980.72;6329829;28;20040;-81
2022/05/18 11:39:51;;;;;;;6.07;0.63;;;;;;;19.52;26.77;100984.16;6330366;28;20179;-79
2022/05/18 11:43:28;;;;;;;1.05;0.47;;;;;;;19.66;26.18;100979.50;6317805;28;20478;-81
2022/05/18 11:46:41;;;;;;;2.35;0.60;;;;;;;19.21;26.34;100985.88;6315779;28;20052;-80
2022/05/18 11:50:08;;;;;;;2.10;0.30;;;;;;;19.92;26.46;100986.09;6327372;28;20510;-80
2022/05/18 11:53:48;;;;;;;2.67;0.40;;;;;;;19.49;25.96;100973.81;6297974;28;20095;-74
2022/05/18 11:57:04;;;;;;;4.38;0.55;;;;;;;19.46;25.76;100971.44;6307801;28;20055;-74
2022/05/18 12:00:14;;;;;;;1.35;0.50;;;;;;;18.42;25.70;100979.94;6326656;28;20040;-80
2022/05/18 12:03:49;;;;;;;0.75;0.50;;;;;;;19.67;25.59;100976.72;6307881;28;20048;-74
2022/05/18 12:07:15;;;;;;;3.25;0.60;;;;;;;20.09;25.65;100971.38;6326075;28;20414;-80
2022/05/18 12:10:39;;;;;;;4.07;0.50;;;;;;;20.27;25.11;100976.91;6326648;28;20044;-81
2022/05/18 12:13:45;;;;;;;2.63;0.50;;;;;;;19.84;26.62;100982.44;6326341;28;20470;-80
2022/05/18 12:16:45;;;;;;;2.42;0.50;;;;;;;20.25;23.44;100970.06;6333430;28;20465;-74
2022/05/18 12:19:56;;;;;;;4.53;0.40;;;;;;;20.28;25.80;100970.66;6333052;28;20044;-79
2022/05/18 12:23:00;;;;;;;1.02;0.47;;;;;;;19.40;24.54;100960.53;6333488;28;20047;-73
2022/05/18 12:26:01;;;;;;;1.05;0.40;;;;;;;19.46;25.43;100970.63;6350512;28;20043;-74
2022/05/18 12:29:04;;;;;;;2.43;0.60;;;;;;;19.29;24.74;100978.16;6351106;28;20043;-80
2022/05/18 12:32:08;;;;;;;2.35;0.40;;;;;;;20.29;24.39;100972.31;6350749;28;20040;-74
2022/05/18 12:35:17;;;;;;;1.95;0.40;;;;;;;20.22;24.01;100976.47;6329471;28;20123;-74
2022/05/18 12:38:27;;;;;;;6.80;0.45;;;;;;;20.30;25.71;100974.00;6307411;28;20047;-74
2022/05/18 12:41:31;;;;;;;3.63;0.73;;;;;;;19.52;25.00;100978.03;6325336;28;20044;-79
2022/05/18 12:44:41;;;;;;;1.73;0.30;;;;;;;19.84;24.72;100969.19;6307822;28;20054;-81
2022/05/18 12:47:52;;;;;;;6.82;0.30;;;;;;;20.37;26.12;100976.13;6308073;28;20429;-81
2022/05/18 12:51:15;;;;;;;2.10;0.40;;;;;;;20.08;23.69;100974.19;6306570;28;20140;-74
2022/05/18 12:54:26;;;;;;;2.33;0.40;;;;;;;19.88;23.44;100963.50;6310078;28;20100;-74
2022/05/18 12:57:40;;;;;;;2.05;0.60;;;;;;;20.04;24.15;100962.19;6351076;28;20054;-80
2022/05/18 13:01:02;;;;;;;6.32;0.52;;;;;;;19.61;24.53;100955.25;6331820;28;20184;-74
2022/05/18 13:04:09;;;;;;;5.47;0.75;;;;;;;20.05;24.11;100959.38;6326212;28;20040;-74
2022/05/18 13:07:31;;;;;;;2.33;0.50;;;;;;;19.51;25.06;100961.28;6315884;28;20048;-75
2022/05/18 13:10:34;;;;;;;;;;;;;;;19.58;26.21;100972.22;6331694;28;20054;-74
2022/05/18 13:14:06;;;;;;;3.65;0.50;;;;;;;19.66;25.74;100967.13;6349246;28;20016;-74
2022/05/18 13:17:13;;;;;;;3.22;0.57;;;;;;;19.63;26.17;100974.47;6332486;28;20036;-74
2022/05/18 13:20:54;;;;;;;1.80;0.50;;;;;;;19.51;25.01;100968.41;6306826;28;20445;-80
2022/05/18 13:24:10;;;;;;;4.63;0.75;;;;;;;19.66;25.09;100972.41;6287483;28;20396;-75
2022/05/18 13:27:37;;;;;;;5.68;0.50;;;;;;;19.24;26.06;100976.84;6289799;28;20052;-80
2022/05/18 13:30:47;;;;;;;2.03;0.50;;;;;;;18.52;25.78;100984.34;6269120;28;20055;-80
2022/05/18 13:34:01;;;;;;;2.95;0.40;;;;;;;18.44;25.54;100989.41;6306301;28;20048;-79
2022/05/18 13:37:04;;;;;;;0.93;0.68;;;;;;;18.85;26.97;100979.16;6290110;28;20056;-79
2022/05/18 13:40:06;;;;;;;2.30;0.30;;;;;;;18.65;26.25;100981.56;6324850;28;20398;-80
2022/05/18 13:43:07;;;;;;;;;;;;;;;18.57;25.80;100977.84;6290139;28;20040;-74
2022/05/18 13:46:21;;;;;;;7.35;0.70;;;;;;;18.27;26.12;100971.41;6322380;28;19919;-79
2022/05/18 13:49:28;;;;;;;0.68;0.50;;;;;;;18.51;26.69;100965.97;6308937;28;20075;-79
2022/05/18 13:52:33;;;;;;;5.50;0.40;;;;;;;18.92;26.89;100962.66;6314390;28;20421;-74
2022/05/18 13:55:45;;;;;;;7.47;0.55;;;;;;;19.03;25.03;100968.88;6330816;28;20055;-79
2022/05/18 13:58:49;;;;;;;2.15;0.35;;;;;;;19.11;26.72;100958.50;6331217;28;20040;-79
2022/05/18 14:01:56;;;;;;;0.82;0.43;;;;;;;19.04;25.08;100958.16;6330812;28;20440;-80
2022/05/18 14:05:04;;;;;;;2.13;0.40;;;;;;;19.14;27.56;100958.25;6331104;28;20042;-80
2022/05/18 14:08:20;;;;;;;1.42;0.40;;;;;;;19.21;25.77;100961.22;6329983;28;20402;-74
2022/05/18 14:11:21;;;;;;;4.10;0.85;;;;;;;18.94;26.17;100970.47;6329820;28;20035;-74
2022/05/18 14:14:22;;;;;;;3.90;0.67;;;;;;;18.73;26.12;100955.34;6312830;28;20052;-74
2022/05/18 14:17:26;;;;;;;1.92;0.45;;;;;;;18.94;25.97;100965.16;6329632;28;20055;-74
2022/05/18 14:20:30;;;;;;;0.70;0.50;;;;;;;18.92;25.85;100965.31;6347743;28;20042;-74
2022/05/18 14:23:56;;;;;;;10.60;1.05;;;;;;;18.71;26.04;100972.31;6347794;28;20043;-73
2022/05/18 14:27:04;;;;;;;6.35;0.57;;;;;;;18.76;25.50;100961.34;6330416;28;20043;-79
2022/05/18 14:30:14;;;;;;;2.50;0.63;;;;;;;18.97;26.96;100958.81;6330854;28;20058;-79
2022/05/18 14:33:15;;;;;;;0.55;0.47;;;;;;;19.13;26.59;100960.06;6348976;28;20043;-79
2022/05/18 14:36:44;;;;;;;4.83;0.60;;;;;;;19.12;26.15;100968.13;6330459;28;20067;-80
2022/05/18 14:39:47;;;;;;;3.42;0.52;;;;;;;18.95;25.11;100964.22;6330532;28;20096;-79
2022/05/18 14:42:53;;;;;;;2.03;0.50;;;;;;;19.05;24.95;100964.31;6330364;28;20144;-79
2022/05/18 14:46:19;;;;;;;2.03;0.52;;;;;;;19.03;26.20;100961.78;6330140;28;20044;-79